sensor_id;sensor_type;location;lat;lon;timestamp;temperature;humidity
52107;DHT22;38105;52.968;5.974;2022-10-16T00:01:27;11.80;99.90
52107;DHT22;38105;52.968;5.974;2022-10-16T00:04:00;11.80;99.90
52107;DHT22;38105;52.968;5.974;2022-10-16T00:06:26;12.00;99.90
52107;DHT22;38105;52.968;5.974;2022-10-16T00:08:55;12.10;99.90
52107;DHT22;38105;52.968;5.974;2022-10-16T00:11:26;12.10;99.90
52107;DHT22;38105;52.968;5.974;2022-10-16T00:13:58;11.90;99.90
52107;DHT22;38105;52.968;5.974;2022-10-16T00:16:27;11.80;99.90
52107;DHT22;38105;52.968;5.974;2022-10-16T00:18:59;12.00;99.90
52107;DHT22;38105;52.968;5.974;2022-10-16T00:21:29;11.80;99.90
52107;DHT22;38105;52.968;5.974;2022-10-16T00:24:04;11.90;99.90
52107;DHT22;38105;52.968;5.974;2022-10-16T00:26:33;11.90;99.90
52107;DHT22;38105;52.968;5.974;2022-10-16T00:28:59;11.90;99.90
52107;DHT22;38105;52.968;5.974;2022-10-16T00:31:28;11.90;99.90
52107;DHT22;38105;52.968;5.974;2022-10-16T00:33:53;12.10;99.90
52107;DHT22;38105;52.968;5.974;2022-10-16T00:36:23;11.90;99.90
52107;DHT22;38105;52.968;5.974;2022-10-16T00:38:58;11.90;99.90
52107;DHT22;38105;52.968;5.974;2022-10-16T00:41:28;12.20;99.90
52107;DHT22;38105;52.968;5.974;2022-10-16T00:47:08;12.00;99.90
52107;DHT22;38105;52.968;5.974;2022-10-16T00:49:39;12.40;99.90
52107;DHT22;38105;52.968;5.974;2022-10-16T00:52:05;12.10;99.90
52107;DHT22;38105;52.968;5.974;2022-10-16T00:54:37;12.30;99.90
52107;DHT22;38105;52.968;5.974;2022-10-16T00:57:07;12.10;99.90
52107;DHT22;38105;52.968;5.974;2022-10-16T00:59:37;12.50;99.90
52107;DHT22;38105;52.968;5.974;2022-10-16T01:02:05;12.20;99.90
52107;DHT22;38105;52.968;5.974;2022-10-16T01:04:35;12.40;99.90
52107;DHT22;38105;52.968;5.974;2022-10-16T01:07:17;12.50;99.90
52107;DHT22;38105;52.968;5.974;2022-10-16T01:13:01;12.30;99.90
52107;DHT22;38105;52.968;5.974;2022-10-16T01:15:40;12.60;99.90
52107;DHT22;38105;52.968;5.974;2022-10-16T01:21:02;12.50;99.90
52107;DHT22;38105;52.968;5.974;2022-10-16T01:29:52;12.50;99.90
52107;DHT22;38105;52.968;5.974;2022-10-16T01:32:36;12.50;99.90
52107;DHT22;38105;52.968;5.974;2022-10-16T01:38:07;12.30;99.90
52107;DHT22;38105;52.968;5.974;2022-10-16T01:40:46;12.20;99.90
52107;DHT22;38105;52.968;5.974;2022-10-16T01:43:22;12.50;99.90
52107;DHT22;38105;52.968;5.974;2022-10-16T01:45:49;12.30;99.90
52107;DHT22;38105;52.968;5.974;2022-10-16T01:48:19;12.40;99.90
52107;DHT22;38105;52.968;5.974;2022-10-16T01:50:58;12.50;99.90
52107;DHT22;38105;52.968;5.974;2022-10-16T01:53:25;12.20;99.90
52107;DHT22;38105;52.968;5.974;2022-10-16T01:55:52;12.40;99.90
52107;DHT22;38105;52.968;5.974;2022-10-16T01:58:22;12.30;99.90
52107;DHT22;38105;52.968;5.974;2022-10-16T02:00:52;12.20;99.90
52107;DHT22;38105;52.968;5.974;2022-10-16T02:03:19;12.20;99.90
52107;DHT22;38105;52.968;5.974;2022-10-16T02:05:47;12.40;99.90
52107;DHT22;38105;52.968;5.974;2022-10-16T02:08:14;12.20;99.90
52107;DHT22;38105;52.968;5.974;2022-10-16T02:10:40;12.40;99.90
52107;DHT22;38105;52.968;5.974;2022-10-16T02:13:19;12.10;99.90
52107;DHT22;38105;52.968;5.974;2022-10-16T02:15:47;12.10;99.90
52107;DHT22;38105;52.968;5.974;2022-10-16T02:18:13;12.20;99.90
52107;DHT22;38105;52.968;5.974;2022-10-16T02:20:51;12.20;99.90
52107;DHT22;38105;52.968;5.974;2022-10-16T02:23:35;12.30;99.90
52107;DHT22;38105;52.968;5.974;2022-10-16T02:26:04;12.40;99.90
52107;DHT22;38105;52.968;5.974;2022-10-16T02:28:40;12.20;99.90
52107;DHT22;38105;52.968;5.974;2022-10-16T02:31:11;12.20;99.90
52107;DHT22;38105;52.968;5.974;2022-10-16T02:33:39;12.10;99.90
52107;DHT22;38105;52.968;5.974;2022-10-16T02:36:07;12.40;99.90
52107;DHT22;38105;52.968;5.974;2022-10-16T02:38:39;12.20;99.90
52107;DHT22;38105;52.968;5.974;2022-10-16T02:41:09;12.30;99.90
52107;DHT22;38105;52.968;5.974;2022-10-16T02:43:35;12.30;99.90
52107;DHT22;38105;52.968;5.974;2022-10-16T02:46:03;12.20;99.90
52107;DHT22;38105;52.968;5.974;2022-10-16T02:48:35;12.10;99.90
52107;DHT22;38105;52.968;5.974;2022-10-16T02:51:03;12.30;99.90
52107;DHT22;38105;52.968;5.974;2022-10-16T02:53:29;12.10;99.90
52107;DHT22;38105;52.968;5.974;2022-10-16T02:55:54;12.10;99.90
52107;DHT22;38105;52.968;5.974;2022-10-16T02:58:23;12.10;99.90
52107;DHT22;38105;52.968;5.974;2022-10-16T03:00:51;12.20;99.90
52107;DHT22;38105;52.968;5.974;2022-10-16T03:03:17;12.30;99.90
52107;DHT22;38105;52.968;5.974;2022-10-16T03:05:50;12.10;99.90
52107;DHT22;38105;52.968;5.974;2022-10-16T03:08:19;12.10;99.90
52107;DHT22;38105;52.968;5.974;2022-10-16T03:10:51;12.30;99.90
52107;DHT22;38105;52.968;5.974;2022-10-16T03:13:17;12.20;99.90
52107;DHT22;38105;52.968;5.974;2022-10-16T03:15:48;12.30;99.90
52107;DHT22;38105;52.968;5.974;2022-10-16T03:18:20;12.10;99.90
52107;DHT22;38105;52.968;5.974;2022-10-16T03:20:46;12.10;99.90
52107;DHT22;38105;52.968;5.974;2022-10-16T03:23:14;12.10;99.90
52107;DHT22;38105;52.968;5.974;2022-10-16T03:25:43;12.10;99.90
52107;DHT22;38105;52.968;5.974;2022-10-16T03:28:12;12.00;99.90
52107;DHT22;38105;52.968;5.974;2022-10-16T03:30:38;12.10;99.90
52107;DHT22;38105;52.968;5.974;2022-10-16T03:33:06;12.10;99.90
52107;DHT22;38105;52.968;5.974;2022-10-16T03:35:34;12.10;99.90
52107;DHT22;38105;52.968;5.974;2022-10-16T03:38:03;12.10;99.90
52107;DHT22;38105;52.968;5.974;2022-10-16T03:40:29;12.00;99.90
52107;DHT22;38105;52.968;5.974;2022-10-16T03:42:58;12.00;99.90
52107;DHT22;38105;52.968;5.974;2022-10-16T03:45:24;12.10;99.90
52107;DHT22;38105;52.968;5.974;2022-10-16T03:47:53;12.10;99.90
52107;DHT22;38105;52.968;5.974;2022-10-16T03:50:21;12.10;99.90
52107;DHT22;38105;52.968;5.974;2022-10-16T03:52:52;12.10;99.90
52107;DHT22;38105;52.968;5.974;2022-10-16T03:55:23;12.00;99.90
52107;DHT22;38105;52.968;5.974;2022-10-16T03:57:51;11.90;99.90
52107;DHT22;38105;52.968;5.974;2022-10-16T04:00:22;12.20;99.90
52107;DHT22;38105;52.968;5.974;2022-10-16T04:02:48;12.00;99.90
52107;DHT22;38105;52.968;5.974;2022-10-16T04:05:14;12.20;99.90
52107;DHT22;38105;52.968;5.974;2022-10-16T04:07:42;12.10;99.90
52107;DHT22;38105;52.968;5.974;2022-10-16T04:10:17;12.00;99.90
52107;DHT22;38105;52.968;5.974;2022-10-16T04:12:45;11.90;99.90
52107;DHT22;38105;52.968;5.974;2022-10-16T04:15:13;12.20;99.90
52107;DHT22;38105;52.968;5.974;2022-10-16T04:17:41;11.90;99.90
52107;DHT22;38105;52.968;5.974;2022-10-16T04:20:12;12.20;99.90
52107;DHT22;38105;52.968;5.974;2022-10-16T04:22:38;12.00;99.90
52107;DHT22;38105;52.968;5.974;2022-10-16T04:25:06;12.00;99.90
52107;DHT22;38105;52.968;5.974;2022-10-16T04:27:39;12.30;99.90
52107;DHT22;38105;52.968;5.974;2022-10-16T04:30:05;12.20;99.90
52107;DHT22;38105;52.968;5.974;2022-10-16T04:32:34;12.40;99.90
52107;DHT22;38105;52.968;5.974;2022-10-16T04:35:03;12.30;99.90
52107;DHT22;38105;52.968;5.974;2022-10-16T04:37:29;12.30;99.90
52107;DHT22;38105;52.968;5.974;2022-10-16T04:39:55;12.20;99.90
52107;DHT22;38105;52.968;5.974;2022-10-16T04:42:21;12.10;99.90
52107;DHT22;38105;52.968;5.974;2022-10-16T04:44:47;12.10;99.90
52107;DHT22;38105;52.968;5.974;2022-10-16T04:47:16;12.40;99.90
52107;DHT22;38105;52.968;5.974;2022-10-16T04:49:47;12.30;99.90
52107;DHT22;38105;52.968;5.974;2022-10-16T04:52:17;12.30;99.90
52107;DHT22;38105;52.968;5.974;2022-10-16T04:54:46;12.00;99.90
52107;DHT22;38105;52.968;5.974;2022-10-16T04:57:12;12.00;99.90
52107;DHT22;38105;52.968;5.974;2022-10-16T04:59:38;12.00;99.90
52107;DHT22;38105;52.968;5.974;2022-10-16T05:02:09;12.10;99.90
52107;DHT22;38105;52.968;5.974;2022-10-16T05:04:37;12.10;99.90
52107;DHT22;38105;52.968;5.974;2022-10-16T05:07:06;12.30;99.90
52107;DHT22;38105;52.968;5.974;2022-10-16T05:09:31;12.20;99.90
52107;DHT22;38105;52.968;5.974;2022-10-16T05:11:59;12.30;99.90
52107;DHT22;38105;52.968;5.974;2022-10-16T05:14:31;12.30;99.90
52107;DHT22;38105;52.968;5.974;2022-10-16T05:17:03;12.40;99.90
52107;DHT22;38105;52.968;5.974;2022-10-16T05:19:32;12.40;99.90
52107;DHT22;38105;52.968;5.974;2022-10-16T05:21:57;12.10;99.90
52107;DHT22;38105;52.968;5.974;2022-10-16T05:24:23;12.40;99.90
52107;DHT22;38105;52.968;5.974;2022-10-16T05:26:55;12.10;99.90
52107;DHT22;38105;52.968;5.974;2022-10-16T05:29:21;12.40;99.90
52107;DHT22;38105;52.968;5.974;2022-10-16T05:31:49;12.40;99.90
52107;DHT22;38105;52.968;5.974;2022-10-16T05:34:15;12.40;99.90
52107;DHT22;38105;52.968;5.974;2022-10-16T05:36:40;12.10;99.90
52107;DHT22;38105;52.968;5.974;2022-10-16T05:39:09;12.10;99.90
52107;DHT22;38105;52.968;5.974;2022-10-16T05:41:35;12.20;99.90
52107;DHT22;38105;52.968;5.974;2022-10-16T05:44:10;12.30;99.90
52107;DHT22;38105;52.968;5.974;2022-10-16T05:46:42;12.10;99.90
52107;DHT22;38105;52.968;5.974;2022-10-16T05:49:17;12.10;99.90
52107;DHT22;38105;52.968;5.974;2022-10-16T05:51:51;12.30;99.90
52107;DHT22;38105;52.968;5.974;2022-10-16T05:54:19;12.20;99.90
52107;DHT22;38105;52.968;5.974;2022-10-16T05:56:48;12.10;99.90
52107;DHT22;38105;52.968;5.974;2022-10-16T05:59:14;12.30;99.90
52107;DHT22;38105;52.968;5.974;2022-10-16T06:01:40;12.40;99.90
52107;DHT22;38105;52.968;5.974;2022-10-16T06:04:11;12.50;99.90
52107;DHT22;38105;52.968;5.974;2022-10-16T06:06:40;12.20;99.90
52107;DHT22;38105;52.968;5.974;2022-10-16T06:09:06;12.40;99.90
52107;DHT22;38105;52.968;5.974;2022-10-16T06:11:36;12.20;99.90
52107;DHT22;38105;52.968;5.974;2022-10-16T06:14:08;12.60;99.90
52107;DHT22;38105;52.968;5.974;2022-10-16T06:16:39;12.50;99.90
52107;DHT22;38105;52.968;5.974;2022-10-16T06:19:05;12.60;99.90
52107;DHT22;38105;52.968;5.974;2022-10-16T06:21:35;12.50;99.90
52107;DHT22;38105;52.968;5.974;2022-10-16T06:24:04;12.40;99.90
52107;DHT22;38105;52.968;5.974;2022-10-16T06:26:39;12.30;99.90
52107;DHT22;38105;52.968;5.974;2022-10-16T06:29:08;12.40;99.90
52107;DHT22;38105;52.968;5.974;2022-10-16T06:31:39;12.50;99.90
52107;DHT22;38105;52.968;5.974;2022-10-16T06:34:10;12.30;99.90
52107;DHT22;38105;52.968;5.974;2022-10-16T06:36:39;12.40;99.90
52107;DHT22;38105;52.968;5.974;2022-10-16T06:39:11;12.40;99.90
52107;DHT22;38105;52.968;5.974;2022-10-16T06:41:39;12.60;99.90
52107;DHT22;38105;52.968;5.974;2022-10-16T06:44:10;12.60;99.90
52107;DHT22;38105;52.968;5.974;2022-10-16T06:46:36;12.30;99.90
52107;DHT22;38105;52.968;5.974;2022-10-16T06:49:02;12.60;99.90
52107;DHT22;38105;52.968;5.974;2022-10-16T06:51:30;12.60;99.90
52107;DHT22;38105;52.968;5.974;2022-10-16T06:53:57;12.30;99.90
52107;DHT22;38105;52.968;5.974;2022-10-16T06:56:25;12.70;99.90
52107;DHT22;38105;52.968;5.974;2022-10-16T06:58:54;12.30;99.90
52107;DHT22;38105;52.968;5.974;2022-10-16T07:01:23;12.40;99.90
52107;DHT22;38105;52.968;5.974;2022-10-16T07:03:50;12.60;99.90
52107;DHT22;38105;52.968;5.974;2022-10-16T07:06:19;12.60;99.90
52107;DHT22;38105;52.968;5.974;2022-10-16T07:08:46;12.40;99.90
52107;DHT22;38105;52.968;5.974;2022-10-16T07:11:16;12.40;99.90
52107;DHT22;38105;52.968;5.974;2022-10-16T07:13:46;12.60;99.90
52107;DHT22;38105;52.968;5.974;2022-10-16T07:16:20;12.70;99.90
52107;DHT22;38105;52.968;5.974;2022-10-16T07:18:46;12.50;99.90
52107;DHT22;38105;52.968;5.974;2022-10-16T07:21:15;12.70;99.90
52107;DHT22;38105;52.968;5.974;2022-10-16T07:23:42;12.80;99.90
52107;DHT22;38105;52.968;5.974;2022-10-16T07:26:08;12.50;99.90
52107;DHT22;38105;52.968;5.974;2022-10-16T07:28:34;12.60;99.90
52107;DHT22;38105;52.968;5.974;2022-10-16T07:31:06;12.70;99.90
52107;DHT22;38105;52.968;5.974;2022-10-16T07:33:33;12.90;99.90
52107;DHT22;38105;52.968;5.974;2022-10-16T07:35:59;13.30;99.90
52107;DHT22;38105;52.968;5.974;2022-10-16T07:38:25;13.50;99.90
52107;DHT22;38105;52.968;5.974;2022-10-16T07:41:04;13.40;99.90
52107;DHT22;38105;52.968;5.974;2022-10-16T07:43:33;13.60;99.90
52107;DHT22;38105;52.968;5.974;2022-10-16T07:46:02;13.60;99.90
52107;DHT22;38105;52.968;5.974;2022-10-16T07:48:32;13.20;99.90
52107;DHT22;38105;52.968;5.974;2022-10-16T07:51:01;13.50;99.90
52107;DHT22;38105;52.968;5.974;2022-10-16T07:53:30;13.20;99.90
52107;DHT22;38105;52.968;5.974;2022-10-16T07:56:04;13.50;99.90
52107;DHT22;38105;52.968;5.974;2022-10-16T07:58:30;13.40;99.90
52107;DHT22;38105;52.968;5.974;2022-10-16T08:00:56;13.40;99.90
52107;DHT22;38105;52.968;5.974;2022-10-16T08:03:22;13.40;99.90
52107;DHT22;38105;52.968;5.974;2022-10-16T08:05:51;13.30;99.90
52107;DHT22;38105;52.968;5.974;2022-10-16T08:08:18;14.50;99.90
52107;DHT22;38105;52.968;5.974;2022-10-16T08:10:44;15.90;99.90
52107;DHT22;38105;52.968;5.974;2022-10-16T08:13:10;17.40;99.90
52107;DHT22;38105;52.968;5.974;2022-10-16T08:15:35;18.20;99.90
52107;DHT22;38105;52.968;5.974;2022-10-16T08:18:05;19.40;99.90
52107;DHT22;38105;52.968;5.974;2022-10-16T08:20:35;20.30;99.90
52107;DHT22;38105;52.968;5.974;2022-10-16T08:23:01;20.60;99.90
52107;DHT22;38105;52.968;5.974;2022-10-16T08:25:30;20.70;99.90
52107;DHT22;38105;52.968;5.974;2022-10-16T08:27:59;20.80;99.90
52107;DHT22;38105;52.968;5.974;2022-10-16T08:30:24;21.30;99.90
52107;DHT22;38105;52.968;5.974;2022-10-16T08:32:55;21.00;99.90
52107;DHT22;38105;52.968;5.974;2022-10-16T08:35:24;20.90;99.90
52107;DHT22;38105;52.968;5.974;2022-10-16T08:37:52;21.10;99.90
52107;DHT22;38105;52.968;5.974;2022-10-16T08:40:26;21.70;99.90
52107;DHT22;38105;52.968;5.974;2022-10-16T08:43:21;21.60;99.90
52107;DHT22;38105;52.968;5.974;2022-10-16T08:48:36;20.60;99.90
52107;DHT22;38105;52.968;5.974;2022-10-16T08:51:15;21.20;99.90
52107;DHT22;38105;52.968;5.974;2022-10-16T08:53:55;21.70;99.90
52107;DHT22;38105;52.968;5.974;2022-10-16T08:56:25;21.10;99.90
52107;DHT22;38105;52.968;5.974;2022-10-16T08:58:52;20.40;99.90
52107;DHT22;38105;52.968;5.974;2022-10-16T09:01:36;19.90;99.90
52107;DHT22;38105;52.968;5.974;2022-10-16T09:12:41;21.50;99.90
52107;DHT22;38105;52.968;5.974;2022-10-16T09:23:43;21.70;99.90
52107;DHT22;38105;52.968;5.974;2022-10-16T09:26:16;21.40;99.90
52107;DHT22;38105;52.968;5.974;2022-10-16T09:29:03;20.90;99.90
52107;DHT22;38105;52.968;5.974;2022-10-16T09:31:32;20.50;99.90
52107;DHT22;38105;52.968;5.974;2022-10-16T09:36:53;19.50;99.90
52107;DHT22;38105;52.968;5.974;2022-10-16T09:39:22;19.40;99.90
52107;DHT22;38105;52.968;5.974;2022-10-16T09:41:51;19.30;99.90
52107;DHT22;38105;52.968;5.974;2022-10-16T09:44:27;19.40;99.90
52107;DHT22;38105;52.968;5.974;2022-10-16T09:49:30;19.10;99.90
52107;DHT22;38105;52.968;5.974;2022-10-16T09:52:05;19.10;99.90
52107;DHT22;38105;52.968;5.974;2022-10-16T09:54:34;19.00;99.90
52107;DHT22;38105;52.968;5.974;2022-10-16T09:57:12;18.80;99.90
52107;DHT22;38105;52.968;5.974;2022-10-16T09:59:55;19.00;99.90
52107;DHT22;38105;52.968;5.974;2022-10-16T10:02:36;19.00;99.90
52107;DHT22;38105;52.968;5.974;2022-10-16T10:05:17;19.00;99.90
52107;DHT22;38105;52.968;5.974;2022-10-16T10:07:59;19.00;99.90
52107;DHT22;38105;52.968;5.974;2022-10-16T10:10:34;19.00;99.90
52107;DHT22;38105;52.968;5.974;2022-10-16T10:13:14;19.10;99.90
52107;DHT22;38105;52.968;5.974;2022-10-16T10:15:54;18.80;99.90
52107;DHT22;38105;52.968;5.974;2022-10-16T10:18:26;18.70;99.90
52107;DHT22;38105;52.968;5.974;2022-10-16T10:20:59;18.80;99.90
52107;DHT22;38105;52.968;5.974;2022-10-16T10:23:27;18.70;99.90
52107;DHT22;38105;52.968;5.974;2022-10-16T10:28:47;18.80;99.90
52107;DHT22;38105;52.968;5.974;2022-10-16T10:34:29;18.80;99.90
52107;DHT22;38105;52.968;5.974;2022-10-16T10:43:56;18.70;99.90
52107;DHT22;38105;52.968;5.974;2022-10-16T10:46:06;18.80;99.90
52107;DHT22;38105;52.968;5.974;2022-10-16T11:09:21;19.00;99.90
52107;DHT22;38105;52.968;5.974;2022-10-16T11:17:27;18.90;99.90
52107;DHT22;38105;52.968;5.974;2022-10-16T11:31:00;18.70;99.90
52107;DHT22;38105;52.968;5.974;2022-10-16T11:33:36;18.70;99.90
52107;DHT22;38105;52.968;5.974;2022-10-16T11:41:34;18.70;99.90
52107;DHT22;38105;52.968;5.974;2022-10-16T11:50:09;18.50;99.90
52107;DHT22;38105;52.968;5.974;2022-10-16T11:55:34;18.60;99.90
52107;DHT22;38105;52.968;5.974;2022-10-16T12:00:51;18.40;99.90
52107;DHT22;38105;52.968;5.974;2022-10-16T12:15:23;18.30;99.90
52107;DHT22;38105;52.968;5.974;2022-10-16T12:17:51;18.30;99.90
52107;DHT22;38105;52.968;5.974;2022-10-16T12:23:04;18.40;99.90
52107;DHT22;38105;52.968;5.974;2022-10-16T12:25:39;18.50;99.90
52107;DHT22;38105;52.968;5.974;2022-10-16T12:31:00;18.50;99.90
52107;DHT22;38105;52.968;5.974;2022-10-16T12:33:33;18.60;99.90
52107;DHT22;38105;52.968;5.974;2022-10-16T12:36:06;18.60;99.90
52107;DHT22;38105;52.968;5.974;2022-10-16T12:38:49;18.70;99.90
52107;DHT22;38105;52.968;5.974;2022-10-16T12:41:37;18.70;99.90
52107;DHT22;38105;52.968;5.974;2022-10-16T12:44:20;18.80;99.90
52107;DHT22;38105;52.968;5.974;2022-10-16T12:46:52;18.80;99.90
52107;DHT22;38105;52.968;5.974;2022-10-16T12:51:59;18.70;99.90
52107;DHT22;38105;52.968;5.974;2022-10-16T12:54:37;18.60;99.90
52107;DHT22;38105;52.968;5.974;2022-10-16T13:08:32;18.50;99.90
52107;DHT22;38105;52.968;5.974;2022-10-16T13:30:18;18.30;99.90
52107;DHT22;38105;52.968;5.974;2022-10-16T13:43:56;18.30;99.90
52107;DHT22;38105;52.968;5.974;2022-10-16T13:46:24;18.20;99.90
52107;DHT22;38105;52.968;5.974;2022-10-16T13:49:16;18.00;99.90
52107;DHT22;38105;52.968;5.974;2022-10-16T13:51:57;17.90;99.90
52107;DHT22;38105;52.968;5.974;2022-10-16T13:54:25;17.70;99.90
52107;DHT22;38105;52.968;5.974;2022-10-16T13:56:51;17.70;99.90
52107;DHT22;38105;52.968;5.974;2022-10-16T13:59:36;17.70;99.90
52107;DHT22;38105;52.968;5.974;2022-10-16T14:02:26;17.60;99.90
52107;DHT22;38105;52.968;5.974;2022-10-16T14:04:54;17.60;99.90
52107;DHT22;38105;52.968;5.974;2022-10-16T14:07:24;17.60;99.90
52107;DHT22;38105;52.968;5.974;2022-10-16T14:09:51;17.60;99.90
52107;DHT22;38105;52.968;5.974;2022-10-16T14:12:18;17.50;99.90
52107;DHT22;38105;52.968;5.974;2022-10-16T14:14:45;17.50;99.90
52107;DHT22;38105;52.968;5.974;2022-10-16T14:17:27;17.40;99.90
52107;DHT22;38105;52.968;5.974;2022-10-16T14:19:56;17.30;99.90
52107;DHT22;38105;52.968;5.974;2022-10-16T14:25:00;17.20;99.90
52107;DHT22;38105;52.968;5.974;2022-10-16T14:27:30;17.10;99.90
52107;DHT22;38105;52.968;5.974;2022-10-16T14:30:16;16.90;99.90
52107;DHT22;38105;52.968;5.974;2022-10-16T14:33:00;17.00;99.90
52107;DHT22;38105;52.968;5.974;2022-10-16T14:35:27;17.00;99.90
52107;DHT22;38105;52.968;5.974;2022-10-16T14:37:55;16.90;99.90
52107;DHT22;38105;52.968;5.974;2022-10-16T14:40:33;16.80;99.90
52107;DHT22;38105;52.968;5.974;2022-10-16T14:43:00;16.70;99.90
52107;DHT22;38105;52.968;5.974;2022-10-16T14:45:30;16.70;99.90
52107;DHT22;38105;52.968;5.974;2022-10-16T14:47:58;16.70;99.90
52107;DHT22;38105;52.968;5.974;2022-10-16T14:50:24;16.60;99.90
52107;DHT22;38105;52.968;5.974;2022-10-16T14:52:50;16.70;99.90
52107;DHT22;38105;52.968;5.974;2022-10-16T14:55:17;16.60;99.90
52107;DHT22;38105;52.968;5.974;2022-10-16T14:57:44;16.60;99.90
52107;DHT22;38105;52.968;5.974;2022-10-16T15:00:18;16.60;99.90
52107;DHT22;38105;52.968;5.974;2022-10-16T15:02:45;16.60;99.90
52107;DHT22;38105;52.968;5.974;2022-10-16T15:05:12;16.50;99.90
52107;DHT22;38105;52.968;5.974;2022-10-16T15:07:38;16.50;99.90
52107;DHT22;38105;52.968;5.974;2022-10-16T15:10:04;16.50;99.90
52107;DHT22;38105;52.968;5.974;2022-10-16T15:12:30;16.50;99.90
52107;DHT22;38105;52.968;5.974;2022-10-16T15:14:56;16.40;99.90
52107;DHT22;38105;52.968;5.974;2022-10-16T15:17:21;16.40;99.90
52107;DHT22;38105;52.968;5.974;2022-10-16T15:19:47;16.40;99.90
52107;DHT22;38105;52.968;5.974;2022-10-16T15:22:13;16.30;99.90
52107;DHT22;38105;52.968;5.974;2022-10-16T15:24:39;16.30;99.90
52107;DHT22;38105;52.968;5.974;2022-10-16T15:27:04;16.20;99.90
52107;DHT22;38105;52.968;5.974;2022-10-16T15:29:30;16.20;99.90
52107;DHT22;38105;52.968;5.974;2022-10-16T15:31:56;16.20;99.90
52107;DHT22;38105;52.968;5.974;2022-10-16T15:34:21;16.10;99.90
52107;DHT22;38105;52.968;5.974;2022-10-16T15:36:47;16.10;99.90
52107;DHT22;38105;52.968;5.974;2022-10-16T15:39:15;16.00;99.90
52107;DHT22;38105;52.968;5.974;2022-10-16T15:41:42;16.00;99.90
52107;DHT22;38105;52.968;5.974;2022-10-16T15:44:08;15.90;99.90
52107;DHT22;38105;52.968;5.974;2022-10-16T15:46:34;15.80;99.90
52107;DHT22;38105;52.968;5.974;2022-10-16T15:49:01;15.90;99.90
52107;DHT22;38105;52.968;5.974;2022-10-16T15:51:27;15.70;99.90
52107;DHT22;38105;52.968;5.974;2022-10-16T15:53:56;15.60;99.90
52107;DHT22;38105;52.968;5.974;2022-10-16T15:56:22;15.50;99.90
52107;DHT22;38105;52.968;5.974;2022-10-16T15:58:51;15.40;99.90
52107;DHT22;38105;52.968;5.974;2022-10-16T16:01:17;15.30;99.90
52107;DHT22;38105;52.968;5.974;2022-10-16T16:03:43;15.30;99.90
52107;DHT22;38105;52.968;5.974;2022-10-16T16:06:11;15.20;99.90
52107;DHT22;38105;52.968;5.974;2022-10-16T16:08:38;15.20;99.90
52107;DHT22;38105;52.968;5.974;2022-10-16T16:11:10;15.10;99.90
52107;DHT22;38105;52.968;5.974;2022-10-16T16:14:10;15.00;99.90
52107;DHT22;38105;52.968;5.974;2022-10-16T16:16:40;14.90;99.90
52107;DHT22;38105;52.968;5.974;2022-10-16T16:19:07;14.80;99.90
52107;DHT22;38105;52.968;5.974;2022-10-16T16:21:36;14.80;99.90
52107;DHT22;38105;52.968;5.974;2022-10-16T16:24:02;14.60;99.90
52107;DHT22;38105;52.968;5.974;2022-10-16T16:26:34;14.40;99.90
52107;DHT22;38105;52.968;5.974;2022-10-16T16:29:05;14.50;99.90
52107;DHT22;38105;52.968;5.974;2022-10-16T16:31:41;14.40;99.90
52107;DHT22;38105;52.968;5.974;2022-10-16T16:34:07;14.40;99.90
52107;DHT22;38105;52.968;5.974;2022-10-16T16:36:34;14.40;99.90
52107;DHT22;38105;52.968;5.974;2022-10-16T16:39:00;14.40;99.90
52107;DHT22;38105;52.968;5.974;2022-10-16T16:41:28;14.20;99.90
52107;DHT22;38105;52.968;5.974;2022-10-16T16:43:54;14.20;99.90
52107;DHT22;38105;52.968;5.974;2022-10-16T16:46:21;14.20;99.90
52107;DHT22;38105;52.968;5.974;2022-10-16T16:48:47;14.10;99.90
52107;DHT22;38105;52.968;5.974;2022-10-16T16:51:14;14.10;99.90
52107;DHT22;38105;52.968;5.974;2022-10-16T16:53:45;14.10;99.90
52107;DHT22;38105;52.968;5.974;2022-10-16T16:56:12;14.10;99.90
52107;DHT22;38105;52.968;5.974;2022-10-16T16:58:38;14.00;99.90
52107;DHT22;38105;52.968;5.974;2022-10-16T17:01:03;13.80;99.90
52107;DHT22;38105;52.968;5.974;2022-10-16T17:03:30;13.90;99.90
52107;DHT22;38105;52.968;5.974;2022-10-16T17:06:05;13.70;99.90
52107;DHT22;38105;52.968;5.974;2022-10-16T17:08:32;13.80;99.90
52107;DHT22;38105;52.968;5.974;2022-10-16T17:10:58;13.60;99.90
52107;DHT22;38105;52.968;5.974;2022-10-16T17:13:25;13.60;99.90
52107;DHT22;38105;52.968;5.974;2022-10-16T17:15:52;13.50;99.90
52107;DHT22;38105;52.968;5.974;2022-10-16T17:18:19;13.40;99.90
52107;DHT22;38105;52.968;5.974;2022-10-16T17:20:45;13.30;99.90
52107;DHT22;38105;52.968;5.974;2022-10-16T17:23:11;13.40;99.90
52107;DHT22;38105;52.968;5.974;2022-10-16T17:25:38;13.20;99.90
52107;DHT22;38105;52.968;5.974;2022-10-16T17:28:05;13.30;99.90
52107;DHT22;38105;52.968;5.974;2022-10-16T17:30:32;13.20;99.90
52107;DHT22;38105;52.968;5.974;2022-10-16T17:33:00;13.30;99.90
52107;DHT22;38105;52.968;5.974;2022-10-16T17:35:26;13.20;99.90
52107;DHT22;38105;52.968;5.974;2022-10-16T17:37:52;13.20;99.90
52107;DHT22;38105;52.968;5.974;2022-10-16T17:40:18;13.20;99.90
52107;DHT22;38105;52.968;5.974;2022-10-16T17:42:44;12.90;99.90
52107;DHT22;38105;52.968;5.974;2022-10-16T17:45:10;12.90;99.90
52107;DHT22;38105;52.968;5.974;2022-10-16T17:47:36;12.80;99.90
52107;DHT22;38105;52.968;5.974;2022-10-16T17:50:03;12.80;99.90
52107;DHT22;38105;52.968;5.974;2022-10-16T17:52:28;12.80;99.90
52107;DHT22;38105;52.968;5.974;2022-10-16T17:54:54;12.80;99.90
52107;DHT22;38105;52.968;5.974;2022-10-16T17:57:21;12.80;99.90
52107;DHT22;38105;52.968;5.974;2022-10-16T17:59:47;12.70;99.90
52107;DHT22;38105;52.968;5.974;2022-10-16T18:02:13;12.80;99.90
52107;DHT22;38105;52.968;5.974;2022-10-16T18:04:39;12.70;99.90
52107;DHT22;38105;52.968;5.974;2022-10-16T18:07:05;12.90;99.90
52107;DHT22;38105;52.968;5.974;2022-10-16T18:09:31;12.70;99.90
52107;DHT22;38105;52.968;5.974;2022-10-16T18:11:57;12.70;99.90
52107;DHT22;38105;52.968;5.974;2022-10-16T18:14:31;12.70;99.90
52107;DHT22;38105;52.968;5.974;2022-10-16T18:16:57;12.70;99.90
52107;DHT22;38105;52.968;5.974;2022-10-16T18:19:24;12.80;99.90
52107;DHT22;38105;52.968;5.974;2022-10-16T18:21:50;12.90;99.90
52107;DHT22;38105;52.968;5.974;2022-10-16T18:24:17;12.60;99.90
52107;DHT22;38105;52.968;5.974;2022-10-16T18:26:43;12.60;99.90
52107;DHT22;38105;52.968;5.974;2022-10-16T18:29:11;12.70;99.90
52107;DHT22;38105;52.968;5.974;2022-10-16T18:31:37;12.70;99.90
52107;DHT22;38105;52.968;5.974;2022-10-16T18:34:03;12.50;99.90
52107;DHT22;38105;52.968;5.974;2022-10-16T18:36:31;12.60;99.90
52107;DHT22;38105;52.968;5.974;2022-10-16T18:38:58;12.40;99.90
52107;DHT22;38105;52.968;5.974;2022-10-16T18:41:25;12.50;99.90